AirNav   Pilot Hours Calculator
 
 1631 users online  

5AZ4 University Medical Center Hospital Heliport
Tucson, Arizona, USA

GOING TO TUCSON?


FAA INFORMATION EFFECTIVE 19 MAY 2022

Location

FAA Identifier: 5AZ4
Lat/Long: 32-14-30.7400N 110-56-47.2200W
32-14.512333N 110-56.787000W
32.2418722,-110.9464500
(estimated)
Elevation: 2559 ft. / 780 m (estimated)
Variation: 12E (1995)
Time zone: UTC -7 (year round; does not observe DST)
Zip code: 85719

Heliport Operations

Heliport use: Private use, MEDICAL USE.
Activation date: 05/1998
Control tower: no
ARTCC: ALBUQUERQUE CENTER
FSS: PRESCOTT FLIGHT SERVICE STATION
Attendance: CONTINUOUS
Wind indicator: yes
Segmented circle: no
Lights: FOR PERIMETER LGTS CALL 520-694-6533 OR 520-694-7547.

Heliport Communications

WX ASOS at TUS (8 nm S): PHONE 520-295-5727
WX AWOS-3 at RYN (13 nm SW): 133.35 (520-578-0269)
WX AWOS-3 at AVQ (17 nm NW): 118.375 (520-682-4104)

Nearby radio navigation aids

VOR radial/distance  VOR name  Freq  Var
TUSr338/8.9TUCSON VORTAC116.0012E

 
NDB name  Hdg/Dist  Freq  Var  ID
RYAN048/12.533812ERYN .-. -.-- -.
MARANA115/17.024512EAVQ .- ...- --.-
ROBLES052/23.322012ERBJ .-. -... .---

Heliport Services

Runway Information

Helipad H1

Dimensions: 40 x 40 ft. / 12 x 12 m
Surface: mats
Runway edge lights: PERI
Latitude: 32-14.516333N
Longitude: 110-56.774667W
Elevation: 2559.0 ft.
Traffic pattern: leftleft

Helipad H2

Dimensions: 40 x 40 ft. / 12 x 12 m
Surface: mats
Latitude: 32-14.508167N
Longitude: 110-56.799167W
Elevation: 2559.0 ft.
Traffic pattern: leftleft

Heliport Ownership and Management from official FAA records

Ownership: Privately-owned
Owner: UNIVERSITY MEDICAL CENTER
1501 NORTH CAMPBELL AVE
TUCSON, AZ 85724
Phone 520-694-7547
Manager: SUZANNE GOTELL
1501 NORTH CAMPBELL AVE
TUCSON, AZ 85724
Phone 520-694-7540

Additional Remarks

ROOFTOP HELIPAD.
FOR CD CTC TUCSON APCH AT 520-829-6121.

Instrument Procedures

There are no published instrument procedures at 5AZ4.

Some nearby airports with instrument procedures:

KDMA - Davis Monthan Air Force Base (6 nm SE)
KTUS - Tucson International Airport (8 nm S)
KRYN - Ryan Field Airport (13 nm SW)
KAVQ - Marana Regional Airport (17 nm NW)
P08 - Coolidge Municipal Airport (48 nm NW)
 
Loc | Ops | Rwys | IFR | FBO | Links
Com | Nav | Svcs | Stats | Notes
Area around 5AZ4 (University Medical Center Hospital Heliport)
 
Road maps at: MapQuest Bing Google
 
Aerial photo
No photo
 
Sectional chart

 
Airport distance calculator
Flying to University Medical Center Hospital Heliport? Find the distance to fly.

From to 5AZ4

Sunrise and sunset
Times for 26-May-2022
 Local
(UTC-7)
 Zulu
(UTC)
Morning civil twilight04:5311:53
Sunrise05:2112:21
Sunset19:2102:21
Evening civil twilight19:4802:48

Current date and time
Zulu (UTC)  26-May-2022 18:14:08
Local (UTC-7)  26-May-2022 11:14:08
 
METAR
KDMA 
6nm SE 
261756Z AUTO 00000KT 10SM CLR 33/M01 A2997 RMK AO2 SLP104 T03301014 10330 20169 58003 $
KTUS 
7nm S 
261753Z VRB04KT 10SM CLR 34/M02 A3000 RMK AO2 SLP109 T03391022 10339 20194 58004
KRYN 
13nm SW 
261745Z 20003KT 10SM CLR 33/M02 A2997
KAVQ 
17nm NW 
261755Z AUTO 36003KT 10SM CLR 34/M02 A2995 RMK AO2 T03411024
TAF
KDMA 
6nm SE 
261400Z 2614/2720 VRB06KT 9999 SKC QNH3004INS BECMG 2617/2618 32012KT 9999 SKC QNH2985INS BECMG 2702/2703 VRB06KT 9999 SKC QNH2990INS TX39/2622Z TN18/2711Z
KTUS 
7nm S 
261120Z 2612/2712 14007KT P6SM SKC FM262000 29009KT P6SM SKC FM270600 13006KT P6SM SKC
NOTAMs
Click for the latest NOTAMs
NOTAMs are issued by the DoD/FAA and will open in a separate window not controlled by AirNav.

 

 
 

Would you like to see your business listed on this page?

 If your business provides an interesting product or service to pilots, flight crews, aircraft, or users of the University Medical Center Hospital Heliport, you should consider listing it here.  To start the listing process, click on the button below
 
Add a business
 

Other Pages about University Medical Center Hospital Heliport

Update a link
 
Copyright © AirNav, LLC. All rights reserved. Privacy Policy  Contact